sensor_id;sensor_type;location;lat;lon;timestamp;P1;durP1;ratioP1;P2;durP2;ratioP2
32038;SDS011;18549;42.286;22.688;2024-03-25T00:02:12;3.13;;;1.67;;
32038;SDS011;18549;42.286;22.688;2024-03-25T00:04:39;3.83;;;1.50;;
32038;SDS011;18549;42.286;22.688;2024-03-25T00:07:05;2.90;;;1.30;;
32038;SDS011;18549;42.286;22.688;2024-03-25T00:09:32;2.87;;;1.57;;
32038;SDS011;18549;42.286;22.688;2024-03-25T00:11:57;2.73;;;1.60;;
32038;SDS011;18549;42.286;22.688;2024-03-25T00:14:24;2.70;;;1.40;;
32038;SDS011;18549;42.286;22.688;2024-03-25T00:16:50;2.42;;;1.42;;
32038;SDS011;18549;42.286;22.688;2024-03-25T00:19:18;2.73;;;1.40;;
32038;SDS011;18549;42.286;22.688;2024-03-25T00:21:43;7.63;;;1.87;;
32038;SDS011;18549;42.286;22.688;2024-03-25T00:24:10;1.90;;;0.97;;
32038;SDS011;18549;42.286;22.688;2024-03-25T00:26:37;2.23;;;1.03;;
32038;SDS011;18549;42.286;22.688;2024-03-25T00:29:03;2.87;;;1.00;;
32038;SDS011;18549;42.286;22.688;2024-03-25T00:31:29;7.17;;;1.20;;
32038;SDS011;18549;42.286;22.688;2024-03-25T00:33:56;3.10;;;1.10;;
32038;SDS011;18549;42.286;22.688;2024-03-25T00:36:23;1.50;;;1.20;;
32038;SDS011;18549;42.286;22.688;2024-03-25T00:38:49;3.90;;;1.63;;
32038;SDS011;18549;42.286;22.688;2024-03-25T00:41:15;2.20;;;1.53;;
32038;SDS011;18549;42.286;22.688;2024-03-25T00:43:42;3.70;;;1.90;;
32038;SDS011;18549;42.286;22.688;2024-03-25T00:46:08;1.43;;;1.10;;
32038;SDS011;18549;42.286;22.688;2024-03-25T00:48:35;2.17;;;1.30;;
32038;SDS011;18549;42.286;22.688;2024-03-25T00:51:02;4.47;;;1.67;;
32038;SDS011;18549;42.286;22.688;2024-03-25T00:53:30;2.43;;;1.60;;
32038;SDS011;18549;42.286;22.688;2024-03-25T00:55:56;3.17;;;2.20;;
32038;SDS011;18549;42.286;22.688;2024-03-25T00:58:23;1.00;;;0.90;;
32038;SDS011;18549;42.286;22.688;2024-03-25T01:00:49;0.77;;;0.70;;
32038;SDS011;18549;42.286;22.688;2024-03-25T01:03:15;2.57;;;1.63;;
32038;SDS011;18549;42.286;22.688;2024-03-25T01:05:41;5.77;;;2.40;;
32038;SDS011;18549;42.286;22.688;2024-03-25T01:08:08;1.93;;;1.30;;
32038;SDS011;18549;42.286;22.688;2024-03-25T01:10:37;1.47;;;1.00;;
32038;SDS011;18549;42.286;22.688;2024-03-25T01:13:04;1.33;;;1.07;;
32038;SDS011;18549;42.286;22.688;2024-03-25T01:15:29;2.37;;;1.27;;
32038;SDS011;18549;42.286;22.688;2024-03-25T01:17:56;1.03;;;0.90;;
32038;SDS011;18549;42.286;22.688;2024-03-25T01:20:22;1.00;;;0.90;;
32038;SDS011;18549;42.286;22.688;2024-03-25T01:22:48;1.57;;;1.03;;
32038;SDS011;18549;42.286;22.688;2024-03-25T01:25:14;1.63;;;1.00;;
32038;SDS011;18549;42.286;22.688;2024-03-25T01:27:42;0.90;;;0.90;;
32038;SDS011;18549;42.286;22.688;2024-03-25T01:30:08;1.40;;;1.13;;
32038;SDS011;18549;42.286;22.688;2024-03-25T01:32:36;1.10;;;1.00;;
32038;SDS011;18549;42.286;22.688;2024-03-25T01:35:01;1.77;;;0.90;;
32038;SDS011;18549;42.286;22.688;2024-03-25T01:37:28;2.07;;;1.20;;
32038;SDS011;18549;42.286;22.688;2024-03-25T01:39:54;3.87;;;1.47;;
32038;SDS011;18549;42.286;22.688;2024-03-25T01:42:20;2.97;;;1.37;;
32038;SDS011;18549;42.286;22.688;2024-03-25T01:44:47;3.67;;;1.30;;
32038;SDS011;18549;42.286;22.688;2024-03-25T01:47:14;1.50;;;1.37;;
32038;SDS011;18549;42.286;22.688;2024-03-25T01:49:40;1.40;;;1.20;;
32038;SDS011;18549;42.286;22.688;2024-03-25T01:52:07;1.27;;;1.17;;
32038;SDS011;18549;42.286;22.688;2024-03-25T01:54:33;2.47;;;1.50;;
32038;SDS011;18549;42.286;22.688;2024-03-25T01:56:59;2.33;;;1.60;;
32038;SDS011;18549;42.286;22.688;2024-03-25T01:59:26;2.87;;;1.57;;
32038;SDS011;18549;42.286;22.688;2024-03-25T02:01:55;2.37;;;1.53;;
32038;SDS011;18549;42.286;22.688;2024-03-25T02:04:22;2.20;;;1.10;;
32038;SDS011;18549;42.286;22.688;2024-03-25T02:06:49;1.63;;;1.13;;
32038;SDS011;18549;42.286;22.688;2024-03-25T02:09:16;2.20;;;0.97;;
32038;SDS011;18549;42.286;22.688;2024-03-25T02:11:43;1.10;;;0.93;;
32038;SDS011;18549;42.286;22.688;2024-03-25T02:14:09;3.83;;;2.17;;
32038;SDS011;18549;42.286;22.688;2024-03-25T02:16:36;3.27;;;1.73;;
32038;SDS011;18549;42.286;22.688;2024-03-25T02:19:03;2.03;;;1.27;;
32038;SDS011;18549;42.286;22.688;2024-03-25T02:21:30;3.57;;;0.90;;
32038;SDS011;18549;42.286;22.688;2024-03-25T02:23:56;1.83;;;0.93;;
32038;SDS011;18549;42.286;22.688;2024-03-25T02:26:27;1.77;;;1.33;;
32038;SDS011;18549;42.286;22.688;2024-03-25T02:28:53;1.43;;;1.00;;
32038;SDS011;18549;42.286;22.688;2024-03-25T02:31:20;2.90;;;1.77;;
32038;SDS011;18549;42.286;22.688;2024-03-25T02:33:45;2.10;;;1.50;;
32038;SDS011;18549;42.286;22.688;2024-03-25T02:36:12;2.17;;;1.20;;
32038;SDS011;18549;42.286;22.688;2024-03-25T02:38:38;1.83;;;1.10;;
32038;SDS011;18549;42.286;22.688;2024-03-25T02:41:04;1.23;;;1.03;;
32038;SDS011;18549;42.286;22.688;2024-03-25T02:43:32;1.40;;;1.10;;
32038;SDS011;18549;42.286;22.688;2024-03-25T02:45:59;1.27;;;0.90;;
32038;SDS011;18549;42.286;22.688;2024-03-25T02:48:25;1.40;;;1.00;;
32038;SDS011;18549;42.286;22.688;2024-03-25T02:50:52;2.37;;;0.97;;
32038;SDS011;18549;42.286;22.688;2024-03-25T02:53:18;2.70;;;0.90;;
32038;SDS011;18549;42.286;22.688;2024-03-25T02:55:44;1.07;;;0.70;;
32038;SDS011;18549;42.286;22.688;2024-03-25T02:58:10;0.77;;;0.70;;
32038;SDS011;18549;42.286;22.688;2024-03-25T03:00:38;0.70;;;0.70;;
32038;SDS011;18549;42.286;22.688;2024-03-25T03:03:04;0.70;;;0.70;;
32038;SDS011;18549;42.286;22.688;2024-03-25T03:05:30;0.83;;;0.83;;
32038;SDS011;18549;42.286;22.688;2024-03-25T03:07:56;2.03;;;0.90;;
32038;SDS011;18549;42.286;22.688;2024-03-25T03:10:23;1.27;;;1.07;;
32038;SDS011;18549;42.286;22.688;2024-03-25T03:12:48;1.40;;;1.10;;
32038;SDS011;18549;42.286;22.688;2024-03-25T03:15:15;1.20;;;0.80;;
32038;SDS011;18549;42.286;22.688;2024-03-25T03:17:42;2.07;;;1.33;;
32038;SDS011;18549;42.286;22.688;2024-03-25T03:20:09;2.10;;;1.80;;
32038;SDS011;18549;42.286;22.688;2024-03-25T03:22:36;3.30;;;1.90;;
32038;SDS011;18549;42.286;22.688;2024-03-25T03:25:03;2.50;;;1.77;;
32038;SDS011;18549;42.286;22.688;2024-03-25T03:27:29;2.17;;;1.40;;
32038;SDS011;18549;42.286;22.688;2024-03-25T03:29:56;2.27;;;1.60;;
32038;SDS011;18549;42.286;22.688;2024-03-25T03:32:22;3.87;;;2.00;;
32038;SDS011;18549;42.286;22.688;2024-03-25T03:34:50;3.47;;;1.77;;
32038;SDS011;18549;42.286;22.688;2024-03-25T03:37:16;3.37;;;1.60;;
32038;SDS011;18549;42.286;22.688;2024-03-25T03:39:42;3.33;;;1.90;;
32038;SDS011;18549;42.286;22.688;2024-03-25T03:42:08;7.17;;;2.77;;
32038;SDS011;18549;42.286;22.688;2024-03-25T03:44:35;5.13;;;3.47;;
32038;SDS011;18549;42.286;22.688;2024-03-25T03:47:00;6.37;;;3.37;;
32038;SDS011;18549;42.286;22.688;2024-03-25T03:49:27;14.07;;;6.13;;
32038;SDS011;18549;42.286;22.688;2024-03-25T03:51:54;10.17;;;5.10;;
32038;SDS011;18549;42.286;22.688;2024-03-25T03:54:22;3.67;;;2.83;;
32038;SDS011;18549;42.286;22.688;2024-03-25T03:56:48;4.50;;;2.47;;
32038;SDS011;18549;42.286;22.688;2024-03-25T03:59:15;2.40;;;2.10;;
32038;SDS011;18549;42.286;22.688;2024-03-25T04:01:40;2.17;;;1.97;;
32038;SDS011;18549;42.286;22.688;2024-03-25T04:04:07;3.90;;;2.37;;
32038;SDS011;18549;42.286;22.688;2024-03-25T04:06:34;3.97;;;2.30;;
32038;SDS011;18549;42.286;22.688;2024-03-25T04:09:02;2.27;;;1.90;;
32038;SDS011;18549;42.286;22.688;2024-03-25T04:11:29;3.40;;;2.00;;
32038;SDS011;18549;42.286;22.688;2024-03-25T04:13:55;4.80;;;2.50;;
32038;SDS011;18549;42.286;22.688;2024-03-25T04:16:21;7.23;;;3.07;;
32038;SDS011;18549;42.286;22.688;2024-03-25T04:18:48;3.40;;;1.90;;
32038;SDS011;18549;42.286;22.688;2024-03-25T04:21:15;8.50;;;2.80;;
32038;SDS011;18549;42.286;22.688;2024-03-25T04:23:40;7.93;;;3.27;;
32038;SDS011;18549;42.286;22.688;2024-03-25T04:26:09;3.27;;;2.00;;
32038;SDS011;18549;42.286;22.688;2024-03-25T04:28:35;4.33;;;1.83;;
32038;SDS011;18549;42.286;22.688;2024-03-25T04:31:02;7.67;;;2.30;;
32038;SDS011;18549;42.286;22.688;2024-03-25T04:33:28;3.40;;;2.00;;
32038;SDS011;18549;42.286;22.688;2024-03-25T04:35:54;5.57;;;1.63;;
32038;SDS011;18549;42.286;22.688;2024-03-25T04:38:20;2.53;;;1.93;;
32038;SDS011;18549;42.286;22.688;2024-03-25T04:40:46;1.93;;;1.40;;
32038;SDS011;18549;42.286;22.688;2024-03-25T04:43:13;3.10;;;2.30;;
32038;SDS011;18549;42.286;22.688;2024-03-25T04:45:39;8.57;;;5.07;;
32038;SDS011;18549;42.286;22.688;2024-03-25T04:48:05;6.50;;;3.67;;
32038;SDS011;18549;42.286;22.688;2024-03-25T04:50:31;9.37;;;3.67;;
32038;SDS011;18549;42.286;22.688;2024-03-25T04:52:57;3.53;;;2.70;;
32038;SDS011;18549;42.286;22.688;2024-03-25T04:55:23;4.87;;;3.53;;
32038;SDS011;18549;42.286;22.688;2024-03-25T04:57:49;5.10;;;3.30;;
32038;SDS011;18549;42.286;22.688;2024-03-25T05:00:16;4.97;;;3.33;;
32038;SDS011;18549;42.286;22.688;2024-03-25T05:02:43;3.07;;;2.57;;
32038;SDS011;18549;42.286;22.688;2024-03-25T05:05:09;8.10;;;4.60;;
32038;SDS011;18549;42.286;22.688;2024-03-25T05:07:34;6.27;;;4.60;;
32038;SDS011;18549;42.286;22.688;2024-03-25T05:10:00;8.07;;;4.60;;
32038;SDS011;18549;42.286;22.688;2024-03-25T05:12:26;7.80;;;5.80;;
32038;SDS011;18549;42.286;22.688;2024-03-25T05:14:52;7.30;;;4.90;;
32038;SDS011;18549;42.286;22.688;2024-03-25T05:17:19;7.43;;;5.17;;
32038;SDS011;18549;42.286;22.688;2024-03-25T05:19:45;8.63;;;6.30;;
32038;SDS011;18549;42.286;22.688;2024-03-25T05:22:11;5.67;;;4.40;;
32038;SDS011;18549;42.286;22.688;2024-03-25T05:24:36;10.27;;;6.50;;
32038;SDS011;18549;42.286;22.688;2024-03-25T05:27:02;7.03;;;5.33;;
32038;SDS011;18549;42.286;22.688;2024-03-25T05:29:28;14.87;;;9.30;;
32038;SDS011;18549;42.286;22.688;2024-03-25T05:31:57;7.43;;;5.57;;
32038;SDS011;18549;42.286;22.688;2024-03-25T05:34:25;9.37;;;5.37;;
32038;SDS011;18549;42.286;22.688;2024-03-25T05:36:52;6.80;;;4.53;;
32038;SDS011;18549;42.286;22.688;2024-03-25T05:39:18;9.73;;;5.40;;
32038;SDS011;18549;42.286;22.688;2024-03-25T05:41:44;4.17;;;3.47;;
32038;SDS011;18549;42.286;22.688;2024-03-25T05:44:10;4.53;;;3.60;;
32038;SDS011;18549;42.286;22.688;2024-03-25T05:46:35;4.30;;;2.53;;
32038;SDS011;18549;42.286;22.688;2024-03-25T05:49:02;4.63;;;3.00;;
32038;SDS011;18549;42.286;22.688;2024-03-25T05:51:29;5.00;;;3.60;;
32038;SDS011;18549;42.286;22.688;2024-03-25T05:53:55;7.83;;;5.13;;
32038;SDS011;18549;42.286;22.688;2024-03-25T05:56:21;8.63;;;4.37;;
32038;SDS011;18549;42.286;22.688;2024-03-25T05:58:46;11.80;;;6.30;;
32038;SDS011;18549;42.286;22.688;2024-03-25T06:01:12;8.17;;;5.80;;
32038;SDS011;18549;42.286;22.688;2024-03-25T06:03:38;7.57;;;4.47;;
32038;SDS011;18549;42.286;22.688;2024-03-25T06:06:04;5.60;;;4.47;;
32038;SDS011;18549;42.286;22.688;2024-03-25T06:08:31;8.00;;;5.13;;
32038;SDS011;18549;42.286;22.688;2024-03-25T06:11:00;9.23;;;6.07;;
32038;SDS011;18549;42.286;22.688;2024-03-25T06:13:26;7.43;;;5.47;;
32038;SDS011;18549;42.286;22.688;2024-03-25T06:15:52;14.27;;;9.63;;
32038;SDS011;18549;42.286;22.688;2024-03-25T06:18:18;7.10;;;4.80;;
32038;SDS011;18549;42.286;22.688;2024-03-25T06:20:43;6.73;;;4.73;;
32038;SDS011;18549;42.286;22.688;2024-03-25T06:23:09;7.97;;;5.23;;
32038;SDS011;18549;42.286;22.688;2024-03-25T06:25:37;8.00;;;5.33;;
32038;SDS011;18549;42.286;22.688;2024-03-25T06:28:03;9.87;;;5.87;;
32038;SDS011;18549;42.286;22.688;2024-03-25T06:30:29;13.30;;;8.03;;
32038;SDS011;18549;42.286;22.688;2024-03-25T06:33:13;6.47;;;4.60;;
32038;SDS011;18549;42.286;22.688;2024-03-25T06:35:57;5.63;;;4.07;;
32038;SDS011;18549;42.286;22.688;2024-03-25T06:38:23;5.67;;;4.30;;
32038;SDS011;18549;42.286;22.688;2024-03-25T06:40:50;27.27;;;3.97;;
32038;SDS011;18549;42.286;22.688;2024-03-25T06:43:16;12.43;;;7.93;;
32038;SDS011;18549;42.286;22.688;2024-03-25T06:45:41;7.57;;;5.57;;
32038;SDS011;18549;42.286;22.688;2024-03-25T06:48:07;7.13;;;4.43;;
32038;SDS011;18549;42.286;22.688;2024-03-25T06:50:33;5.80;;;4.03;;
32038;SDS011;18549;42.286;22.688;2024-03-25T06:52:58;5.13;;;3.83;;
32038;SDS011;18549;42.286;22.688;2024-03-25T06:55:24;6.50;;;3.30;;
32038;SDS011;18549;42.286;22.688;2024-03-25T06:57:51;5.70;;;4.30;;
32038;SDS011;18549;42.286;22.688;2024-03-25T07:00:17;13.23;;;7.23;;
32038;SDS011;18549;42.286;22.688;2024-03-25T07:02:44;11.80;;;6.40;;
32038;SDS011;18549;42.286;22.688;2024-03-25T07:05:09;4.43;;;3.47;;
32038;SDS011;18549;42.286;22.688;2024-03-25T07:07:35;7.90;;;5.50;;
32038;SDS011;18549;42.286;22.688;2024-03-25T07:10:01;8.27;;;4.87;;
32038;SDS011;18549;42.286;22.688;2024-03-25T07:12:27;5.63;;;4.47;;
32038;SDS011;18549;42.286;22.688;2024-03-25T07:14:54;5.40;;;4.83;;
32038;SDS011;18549;42.286;22.688;2024-03-25T07:17:21;7.53;;;5.27;;
32038;SDS011;18549;42.286;22.688;2024-03-25T07:19:46;6.47;;;4.80;;
32038;SDS011;18549;42.286;22.688;2024-03-25T07:22:12;9.70;;;6.03;;
32038;SDS011;18549;42.286;22.688;2024-03-25T07:24:38;14.87;;;10.43;;
32038;SDS011;18549;42.286;22.688;2024-03-25T07:27:04;12.70;;;11.13;;
32038;SDS011;18549;42.286;22.688;2024-03-25T07:29:30;12.93;;;9.97;;
32038;SDS011;18549;42.286;22.688;2024-03-25T07:31:57;10.43;;;7.40;;
32038;SDS011;18549;42.286;22.688;2024-03-25T07:34:23;9.50;;;6.60;;
32038;SDS011;18549;42.286;22.688;2024-03-25T07:36:48;11.93;;;8.87;;
32038;SDS011;18549;42.286;22.688;2024-03-25T07:39:14;11.90;;;8.47;;
32038;SDS011;18549;42.286;22.688;2024-03-25T07:41:40;16.50;;;11.07;;
32038;SDS011;18549;42.286;22.688;2024-03-25T07:44:06;11.47;;;8.93;;
32038;SDS011;18549;42.286;22.688;2024-03-25T07:46:31;9.20;;;7.30;;
32038;SDS011;18549;42.286;22.688;2024-03-25T07:48:59;8.77;;;7.77;;
32038;SDS011;18549;42.286;22.688;2024-03-25T07:51:24;9.90;;;7.30;;
32038;SDS011;18549;42.286;22.688;2024-03-25T07:53:50;8.43;;;6.90;;
32038;SDS011;18549;42.286;22.688;2024-03-25T07:56:16;6.30;;;5.63;;
32038;SDS011;18549;42.286;22.688;2024-03-25T07:58:42;8.57;;;5.43;;
32038;SDS011;18549;42.286;22.688;2024-03-25T08:01:07;8.00;;;6.10;;
32038;SDS011;18549;42.286;22.688;2024-03-25T08:03:33;7.40;;;6.37;;
32038;SDS011;18549;42.286;22.688;2024-03-25T08:06:00;7.57;;;6.20;;
32038;SDS011;18549;42.286;22.688;2024-03-25T08:08:26;11.77;;;6.67;;
32038;SDS011;18549;42.286;22.688;2024-03-25T08:10:52;6.10;;;5.50;;
32038;SDS011;18549;42.286;22.688;2024-03-25T08:13:18;5.73;;;5.20;;
32038;SDS011;18549;42.286;22.688;2024-03-25T08:15:43;6.17;;;4.90;;
32038;SDS011;18549;42.286;22.688;2024-03-25T08:18:09;5.07;;;4.57;;
32038;SDS011;18549;42.286;22.688;2024-03-25T08:20:35;6.83;;;4.83;;
32038;SDS011;18549;42.286;22.688;2024-03-25T08:23:02;11.57;;;5.70;;
32038;SDS011;18549;42.286;22.688;2024-03-25T08:25:28;9.17;;;6.50;;
32038;SDS011;18549;42.286;22.688;2024-03-25T08:27:54;8.00;;;6.00;;
32038;SDS011;18549;42.286;22.688;2024-03-25T08:30:19;7.63;;;5.47;;
32038;SDS011;18549;42.286;22.688;2024-03-25T08:32:45;14.17;;;6.10;;
32038;SDS011;18549;42.286;22.688;2024-03-25T08:35:11;10.50;;;5.83;;
32038;SDS011;18549;42.286;22.688;2024-03-25T08:37:37;10.13;;;6.20;;
32038;SDS011;18549;42.286;22.688;2024-03-25T08:40:05;6.70;;;4.90;;
32038;SDS011;18549;42.286;22.688;2024-03-25T08:42:31;11.63;;;4.97;;
32038;SDS011;18549;42.286;22.688;2024-03-25T08:44:57;6.50;;;4.60;;
32038;SDS011;18549;42.286;22.688;2024-03-25T08:47:23;5.33;;;4.20;;
32038;SDS011;18549;42.286;22.688;2024-03-25T08:49:48;12.03;;;4.57;;
32038;SDS011;18549;42.286;22.688;2024-03-25T08:52:14;6.27;;;5.30;;
32038;SDS011;18549;42.286;22.688;2024-03-25T08:54:40;7.10;;;4.93;;
32038;SDS011;18549;42.286;22.688;2024-03-25T08:57:07;6.10;;;4.63;;
32038;SDS011;18549;42.286;22.688;2024-03-25T08:59:33;3.90;;;3.53;;
32038;SDS011;18549;42.286;22.688;2024-03-25T09:01:58;5.70;;;4.67;;
32038;SDS011;18549;42.286;22.688;2024-03-25T09:04:24;4.93;;;4.40;;
32038;SDS011;18549;42.286;22.688;2024-03-25T09:06:50;8.47;;;4.67;;
32038;SDS011;18549;42.286;22.688;2024-03-25T09:09:16;6.17;;;4.23;;
32038;SDS011;18549;42.286;22.688;2024-03-25T09:12:00;7.67;;;4.80;;
32038;SDS011;18549;42.286;22.688;2024-03-25T09:14:30;10.37;;;5.43;;
32038;SDS011;18549;42.286;22.688;2024-03-25T09:16:56;10.80;;;5.57;;
32038;SDS011;18549;42.286;22.688;2024-03-25T09:19:21;11.97;;;6.40;;
32038;SDS011;18549;42.286;22.688;2024-03-25T09:21:47;23.37;;;12.77;;
32038;SDS011;18549;42.286;22.688;2024-03-25T09:24:13;12.90;;;9.70;;
32038;SDS011;18549;42.286;22.688;2024-03-25T09:26:39;14.37;;;9.93;;
32038;SDS011;18549;42.286;22.688;2024-03-25T09:29:05;9.83;;;7.43;;
32038;SDS011;18549;42.286;22.688;2024-03-25T09:31:32;10.13;;;6.80;;
32038;SDS011;18549;42.286;22.688;2024-03-25T09:33:58;8.33;;;7.33;;
32038;SDS011;18549;42.286;22.688;2024-03-25T09:36:24;11.23;;;8.50;;
32038;SDS011;18549;42.286;22.688;2024-03-25T09:38:49;8.80;;;6.03;;
32038;SDS011;18549;42.286;22.688;2024-03-25T09:41:15;9.93;;;5.93;;
32038;SDS011;18549;42.286;22.688;2024-03-25T09:43:42;7.53;;;6.33;;
32038;SDS011;18549;42.286;22.688;2024-03-25T09:46:10;8.97;;;4.67;;
32038;SDS011;18549;42.286;22.688;2024-03-25T09:48:37;19.80;;;11.23;;
32038;SDS011;18549;42.286;22.688;2024-03-25T09:51:04;12.73;;;7.23;;
32038;SDS011;18549;42.286;22.688;2024-03-25T09:53:30;12.57;;;8.57;;
32038;SDS011;18549;42.286;22.688;2024-03-25T09:55:56;14.63;;;8.70;;
32038;SDS011;18549;42.286;22.688;2024-03-25T09:58:22;10.97;;;7.03;;
32038;SDS011;18549;42.286;22.688;2024-03-25T10:00:50;24.13;;;10.33;;
32038;SDS011;18549;42.286;22.688;2024-03-25T10:03:16;12.17;;;7.80;;
32038;SDS011;18549;42.286;22.688;2024-03-25T10:05:43;10.40;;;7.40;;
32038;SDS011;18549;42.286;22.688;2024-03-25T10:08:09;8.93;;;5.40;;
32038;SDS011;18549;42.286;22.688;2024-03-25T10:10:35;9.60;;;7.27;;
32038;SDS011;18549;42.286;22.688;2024-03-25T10:13:01;9.93;;;7.17;;
32038;SDS011;18549;42.286;22.688;2024-03-25T10:15:27;7.80;;;6.50;;
32038;SDS011;18549;42.286;22.688;2024-03-25T10:17:53;13.17;;;8.20;;
32038;SDS011;18549;42.286;22.688;2024-03-25T10:20:18;6.40;;;5.47;;
32038;SDS011;18549;42.286;22.688;2024-03-25T10:22:46;11.03;;;6.90;;
32038;SDS011;18549;42.286;22.688;2024-03-25T10:25:21;7.43;;;4.87;;
32038;SDS011;18549;42.286;22.688;2024-03-25T10:27:53;6.00;;;5.17;;
32038;SDS011;18549;42.286;22.688;2024-03-25T10:30:20;14.93;;;5.90;;
32038;SDS011;18549;42.286;22.688;2024-03-25T10:32:46;6.97;;;5.00;;
32038;SDS011;18549;42.286;22.688;2024-03-25T10:35:22;5.77;;;5.17;;
32038;SDS011;18549;42.286;22.688;2024-03-25T10:37:51;6.80;;;5.57;;
32038;SDS011;18549;42.286;22.688;2024-03-25T10:40:20;8.80;;;6.93;;
32038;SDS011;18549;42.286;22.688;2024-03-25T10:42:48;6.60;;;5.97;;
32038;SDS011;18549;42.286;22.688;2024-03-25T10:45:15;7.93;;;6.53;;
32038;SDS011;18549;42.286;22.688;2024-03-25T10:47:41;7.27;;;5.57;;
32038;SDS011;18549;42.286;22.688;2024-03-25T10:50:08;10.33;;;5.97;;
32038;SDS011;18549;42.286;22.688;2024-03-25T10:52:37;8.20;;;5.63;;
32038;SDS011;18549;42.286;22.688;2024-03-25T10:55:05;11.50;;;5.77;;
32038;SDS011;18549;42.286;22.688;2024-03-25T10:57:32;21.50;;;8.67;;
32038;SDS011;18549;42.286;22.688;2024-03-25T10:59:58;16.97;;;8.17;;
32038;SDS011;18549;42.286;22.688;2024-03-25T11:02:25;6.93;;;6.00;;
32038;SDS011;18549;42.286;22.688;2024-03-25T11:04:51;13.00;;;8.93;;
32038;SDS011;18549;42.286;22.688;2024-03-25T11:07:17;5.10;;;4.30;;
32038;SDS011;18549;42.286;22.688;2024-03-25T11:09:52;6.73;;;3.90;;
32038;SDS011;18549;42.286;22.688;2024-03-25T11:12:34;11.47;;;7.23;;
32038;SDS011;18549;42.286;22.688;2024-03-25T11:15:00;11.47;;;7.10;;
32038;SDS011;18549;42.286;22.688;2024-03-25T11:17:26;11.37;;;7.17;;
32038;SDS011;18549;42.286;22.688;2024-03-25T11:19:52;7.37;;;5.47;;
32038;SDS011;18549;42.286;22.688;2024-03-25T11:22:23;6.57;;;5.23;;
32038;SDS011;18549;42.286;22.688;2024-03-25T11:24:50;9.13;;;5.23;;
32038;SDS011;18549;42.286;22.688;2024-03-25T11:27:20;6.17;;;4.60;;
32038;SDS011;18549;42.286;22.688;2024-03-25T11:29:48;9.03;;;4.03;;
32038;SDS011;18549;42.286;22.688;2024-03-25T11:32:14;4.73;;;4.00;;
32038;SDS011;18549;42.286;22.688;2024-03-25T11:34:49;5.87;;;4.40;;
32038;SDS011;18549;42.286;22.688;2024-03-25T11:37:15;7.73;;;4.33;;
32038;SDS011;18549;42.286;22.688;2024-03-25T11:39:41;12.77;;;9.30;;
32038;SDS011;18549;42.286;22.688;2024-03-25T11:42:07;6.93;;;5.80;;
32038;SDS011;18549;42.286;22.688;2024-03-25T11:44:35;7.13;;;4.60;;
32038;SDS011;18549;42.286;22.688;2024-03-25T11:47:03;14.53;;;9.40;;
32038;SDS011;18549;42.286;22.688;2024-03-25T11:49:29;10.03;;;6.37;;
32038;SDS011;18549;42.286;22.688;2024-03-25T11:51:55;5.57;;;4.70;;
32038;SDS011;18549;42.286;22.688;2024-03-25T11:54:23;10.30;;;6.90;;
32038;SDS011;18549;42.286;22.688;2024-03-25T11:56:49;4.83;;;3.93;;
32038;SDS011;18549;42.286;22.688;2024-03-25T11:59:15;3.53;;;3.20;;
32038;SDS011;18549;42.286;22.688;2024-03-25T12:01:41;3.80;;;2.83;;
32038;SDS011;18549;42.286;22.688;2024-03-25T12:04:11;6.17;;;4.00;;
32038;SDS011;18549;42.286;22.688;2024-03-25T12:06:37;5.97;;;4.40;;
32038;SDS011;18549;42.286;22.688;2024-03-25T12:09:03;4.37;;;3.27;;
32038;SDS011;18549;42.286;22.688;2024-03-25T12:11:47;5.07;;;3.70;;
32038;SDS011;18549;42.286;22.688;2024-03-25T12:14:13;4.47;;;3.83;;
32038;SDS011;18549;42.286;22.688;2024-03-25T12:16:39;9.30;;;4.93;;
32038;SDS011;18549;42.286;22.688;2024-03-25T12:19:05;6.10;;;2.70;;
32038;SDS011;18549;42.286;22.688;2024-03-25T12:21:33;7.03;;;4.27;;
32038;SDS011;18549;42.286;22.688;2024-03-25T12:23:59;5.97;;;3.33;;
32038;SDS011;18549;42.286;22.688;2024-03-25T12:26:25;7.00;;;2.57;;
32038;SDS011;18549;42.286;22.688;2024-03-25T12:28:51;2.80;;;2.53;;
32038;SDS011;18549;42.286;22.688;2024-03-25T12:31:17;5.97;;;4.43;;
32038;SDS011;18549;42.286;22.688;2024-03-25T12:33:43;5.17;;;4.07;;
32038;SDS011;18549;42.286;22.688;2024-03-25T12:36:11;8.10;;;3.40;;
32038;SDS011;18549;42.286;22.688;2024-03-25T12:38:38;9.63;;;5.40;;
32038;SDS011;18549;42.286;22.688;2024-03-25T12:41:04;13.10;;;4.27;;
32038;SDS011;18549;42.286;22.688;2024-03-25T12:43:31;6.60;;;3.80;;
32038;SDS011;18549;42.286;22.688;2024-03-25T12:45:57;8.40;;;5.17;;
32038;SDS011;18549;42.286;22.688;2024-03-25T12:48:23;3.90;;;3.20;;
32038;SDS011;18549;42.286;22.688;2024-03-25T12:50:49;6.20;;;2.50;;
32038;SDS011;18549;42.286;22.688;2024-03-25T12:53:17;5.43;;;3.33;;
32038;SDS011;18549;42.286;22.688;2024-03-25T12:55:44;7.27;;;4.70;;
32038;SDS011;18549;42.286;22.688;2024-03-25T12:58:10;7.17;;;5.40;;
32038;SDS011;18549;42.286;22.688;2024-03-25T13:00:36;4.30;;;3.90;;
32038;SDS011;18549;42.286;22.688;2024-03-25T13:03:03;9.47;;;5.80;;
32038;SDS011;18549;42.286;22.688;2024-03-25T13:05:30;6.83;;;5.60;;
32038;SDS011;18549;42.286;22.688;2024-03-25T13:07:55;7.87;;;4.63;;
32038;SDS011;18549;42.286;22.688;2024-03-25T13:10:21;5.83;;;4.63;;
32038;SDS011;18549;42.286;22.688;2024-03-25T13:12:48;5.67;;;4.33;;
32038;SDS011;18549;42.286;22.688;2024-03-25T13:15:14;4.90;;;4.40;;
32038;SDS011;18549;42.286;22.688;2024-03-25T13:17:40;9.20;;;5.07;;
32038;SDS011;18549;42.286;22.688;2024-03-25T13:20:06;8.67;;;5.93;;
32038;SDS011;18549;42.286;22.688;2024-03-25T13:22:32;7.67;;;6.07;;
32038;SDS011;18549;42.286;22.688;2024-03-25T13:24:58;5.33;;;4.40;;
32038;SDS011;18549;42.286;22.688;2024-03-25T13:27:24;5.87;;;4.47;;
32038;SDS011;18549;42.286;22.688;2024-03-25T13:29:51;2.83;;;2.30;;
32038;SDS011;18549;42.286;22.688;2024-03-25T13:32:17;6.47;;;3.93;;
32038;SDS011;18549;42.286;22.688;2024-03-25T13:34:43;5.43;;;3.57;;
32038;SDS011;18549;42.286;22.688;2024-03-25T13:37:09;3.77;;;3.03;;
32038;SDS011;18549;42.286;22.688;2024-03-25T13:39:36;3.27;;;2.33;;
32038;SDS011;18549;42.286;22.688;2024-03-25T13:42:02;1.70;;;1.40;;
32038;SDS011;18549;42.286;22.688;2024-03-25T13:44:28;2.27;;;1.90;;
32038;SDS011;18549;42.286;22.688;2024-03-25T13:46:57;2.57;;;1.90;;
32038;SDS011;18549;42.286;22.688;2024-03-25T13:49:22;2.50;;;2.17;;
32038;SDS011;18549;42.286;22.688;2024-03-25T13:51:48;7.60;;;2.73;;
32038;SDS011;18549;42.286;22.688;2024-03-25T13:54:21;4.30;;;2.10;;
32038;SDS011;18549;42.286;22.688;2024-03-25T13:56:47;6.93;;;3.83;;
32038;SDS011;18549;42.286;22.688;2024-03-25T13:59:14;6.43;;;3.63;;
32038;SDS011;18549;42.286;22.688;2024-03-25T14:01:41;12.57;;;5.07;;
32038;SDS011;18549;42.286;22.688;2024-03-25T14:04:08;3.87;;;3.20;;
32038;SDS011;18549;42.286;22.688;2024-03-25T14:06:35;7.43;;;4.03;;
32038;SDS011;18549;42.286;22.688;2024-03-25T14:09:01;4.90;;;3.13;;
32038;SDS011;18549;42.286;22.688;2024-03-25T14:11:27;4.03;;;2.60;;
32038;SDS011;18549;42.286;22.688;2024-03-25T14:13:53;9.90;;;4.70;;
32038;SDS011;18549;42.286;22.688;2024-03-25T14:16:19;11.30;;;4.20;;
32038;SDS011;18549;42.286;22.688;2024-03-25T14:18:44;4.37;;;2.73;;
32038;SDS011;18549;42.286;22.688;2024-03-25T14:21:12;6.73;;;3.67;;
32038;SDS011;18549;42.286;22.688;2024-03-25T14:23:37;6.57;;;3.67;;
32038;SDS011;18549;42.286;22.688;2024-03-25T14:26:03;5.73;;;3.33;;
32038;SDS011;18549;42.286;22.688;2024-03-25T14:28:29;7.20;;;3.57;;